createdAt,value
2023-02-03T00:00:28.815Z,78.80
2023-02-03T00:02:59.534Z,78.70
2023-02-03T00:05:36.252Z,79.07
2023-02-03T00:08:33.253Z,79.55
2023-02-03T00:11:09.007Z,79.16
2023-02-03T00:13:37.506Z,79.61
2023-02-03T00:16:09.637Z,79.63
2023-02-03T00:18:39.355Z,79.82
2023-02-03T00:21:09.490Z,79.83
2023-02-03T00:23:37.607Z,80.23
2023-02-03T00:26:09.971Z,80.36
2023-02-03T00:28:39.366Z,80.57
2023-02-03T00:31:16.359Z,80.73
2023-02-03T00:33:47.112Z,80.93
2023-02-03T00:36:20.283Z,81.09
2023-02-03T00:38:50.247Z,81.32
2023-02-03T00:41:20.125Z,81.09
2023-02-03T00:43:49.541Z,81.31
2023-02-03T00:46:19.962Z,80.83
2023-02-03T00:48:49.646Z,80.94
2023-02-03T00:51:21.502Z,81.14
2023-02-03T00:53:54.342Z,80.69
2023-02-03T00:56:23.489Z,80.72
2023-02-03T00:58:52.698Z,80.59
2023-02-03T01:01:22.896Z,80.79
2023-02-03T01:04:25.598Z,80.73
2023-02-03T01:06:59.918Z,81.18
2023-02-03T01:09:30.143Z,80.29
2023-02-03T01:12:02.401Z,78.56
2023-02-03T01:14:32.043Z,79.16
2023-02-03T01:17:03.443Z,79.14
2023-02-03T01:19:35.188Z,79.08
2023-02-03T01:22:10.366Z,78.86
2023-02-03T01:24:38.614Z,79.15
2023-02-03T01:27:37.569Z,79.12
2023-02-03T01:30:14.235Z,79.26
2023-02-03T01:32:47.413Z,79.44
2023-02-03T01:35:31.178Z,78.99
2023-02-03T01:37:59.826Z,79.01
2023-02-03T01:40:31.843Z,78.52
2023-02-03T01:43:03.398Z,78.89
2023-02-03T01:45:31.896Z,79.15
2023-02-03T01:48:02.404Z,79.70
2023-02-03T01:50:38.546Z,80.19
2023-02-03T01:53:13.079Z,80.14
2023-02-03T01:55:50.173Z,79.96
2023-02-03T01:58:22.279Z,79.62
2023-02-03T02:04:16.551Z,78.49
2023-02-03T02:06:51.350Z,78.09
2023-02-03T02:09:30.539Z,77.80
2023-02-03T02:12:03.653Z,77.69
2023-02-03T02:14:34.208Z,77.96
2023-02-03T02:17:11.546Z,77.96
2023-02-03T02:20:26.335Z,78.05
2023-02-03T02:23:38.275Z,77.83
2023-02-03T02:26:31.261Z,77.11
2023-02-03T02:29:20.103Z,76.77
2023-02-03T02:32:11.449Z,76.55
2023-02-03T02:34:48.417Z,77.31
2023-02-03T02:37:49.309Z,76.85
2023-02-03T02:40:54.137Z,76.55
2023-02-03T02:43:57.686Z,76.90
2023-02-03T02:46:35.218Z,76.95
2023-02-03T02:49:08.535Z,77.12
2023-02-03T02:51:39.916Z,77.47
2023-02-03T02:54:11.862Z,78.66
2023-02-03T02:56:46.627Z,79.09
2023-02-03T02:59:20.695Z,79.46
2023-02-03T03:01:49.883Z,79.40
2023-02-03T03:04:23.380Z,79.79
2023-02-03T03:06:59.397Z,79.52
2023-02-03T03:09:29.772Z,80.07
2023-02-03T03:12:08.010Z,79.08
2023-02-03T03:18:57.211Z,80.77
2023-02-03T03:22:02.559Z,80.62
2023-02-03T03:24:43.431Z,81.15
2023-02-03T03:27:16.664Z,81.53
2023-02-03T03:29:50.723Z,81.51
2023-02-03T03:32:24.132Z,82.06
2023-02-03T03:34:55.501Z,81.91
2023-02-03T03:37:56.702Z,82.05
2023-02-03T03:40:34.308Z,82.63
2023-02-03T03:43:08.259Z,83.17
2023-02-03T03:45:47.643Z,83.52
2023-02-03T03:48:48.834Z,82.75
2023-02-03T03:51:23.575Z,80.90
2023-02-03T03:53:57.283Z,80.36
2023-02-03T03:56:31.547Z,80.42
2023-02-03T03:59:02.477Z,80.66
2023-02-03T04:01:39.212Z,80.15
2023-02-03T04:04:12.486Z,80.17
2023-02-03T04:06:43.807Z,80.00
2023-02-03T04:09:18.790Z,78.92
2023-02-03T04:12:03.380Z,79.49
2023-02-03T04:14:33.326Z,79.68
2023-02-03T04:17:01.552Z,80.11
2023-02-03T04:19:29.763Z,80.17
2023-02-03T04:22:00.015Z,80.51
2023-02-03T04:24:33.747Z,80.97
2023-02-03T04:27:08.819Z,81.45
2023-02-03T04:30:39.256Z,82.10
2023-02-03T04:33:07.439Z,81.84
2023-02-03T04:35:36.676Z,81.95
2023-02-03T04:38:07.829Z,82.33
2023-02-03T04:40:42.816Z,82.48
2023-02-03T04:43:21.130Z,82.40
2023-02-03T04:45:54.458Z,82.32
2023-02-03T04:48:26.607Z,82.26
2023-02-03T04:50:56.788Z,82.75
2023-02-03T04:53:27.095Z,82.73
2023-02-03T04:55:57.730Z,82.99
2023-02-03T05:03:41.750Z,82.76
2023-02-03T05:11:10.884Z,82.54
2023-02-03T05:14:09.188Z,82.89
2023-02-03T05:17:08.155Z,82.93
2023-02-03T05:19:50.535Z,82.09
2023-02-03T05:28:18.075Z,81.59
2023-02-03T05:35:30.515Z,81.05
2023-02-03T05:39:01.830Z,80.93
2023-02-03T05:46:05.251Z,80.99
2023-02-03T05:53:18.627Z,80.29
2023-02-03T06:00:22.059Z,80.52
2023-02-03T06:07:33.238Z,81.17
2023-02-03T06:14:35.737Z,80.59
2023-02-03T06:17:33.192Z,80.72
2023-02-03T06:24:15.360Z,80.01
2023-02-03T06:27:59.929Z,80.03
2023-02-03T06:31:43.886Z,80.32
2023-02-03T06:39:20.005Z,81.07
2023-02-03T06:47:20.544Z,80.35
2023-02-03T06:49:53.742Z,79.54
2023-02-03T06:52:28.048Z,81.91
2023-02-03T06:55:24.900Z,82.58
2023-02-03T07:01:41.330Z,81.93
2023-02-03T07:04:10.657Z,81.71
2023-02-03T07:07:16.715Z,82.42
2023-02-03T07:09:56.221Z,82.10
2023-02-03T07:13:26.211Z,82.58
2023-02-03T07:16:29.771Z,82.64
2023-02-03T07:19:32.072Z,81.94
2023-02-03T07:22:06.450Z,81.34
2023-02-03T07:25:39.986Z,81.38
2023-02-03T07:28:57.581Z,80.84
2023-02-03T07:32:02.768Z,81.07
2023-02-03T07:35:28.371Z,80.80
2023-02-03T07:38:01.380Z,80.59
2023-02-03T07:40:49.709Z,80.57
2023-02-03T07:44:43.352Z,80.77
2023-02-03T07:47:17.819Z,80.52
2023-02-03T07:51:16.585Z,80.68
2023-02-03T07:57:47.565Z,80.20
2023-02-03T08:00:33.238Z,80.05
2023-02-03T08:03:04.621Z,79.40
2023-02-03T08:05:37.859Z,79.93
2023-02-03T08:09:20.772Z,80.77
2023-02-03T08:12:21.237Z,82.12
2023-02-03T08:15:18.126Z,83.12
2023-02-03T08:18:32.746Z,82.83
2023-02-03T08:21:05.007Z,82.71
2023-02-03T08:28:32.179Z,83.17
2023-02-03T08:31:34.223Z,84.36
2023-02-03T08:34:18.523Z,85.08
2023-02-03T08:37:22.058Z,86.25
2023-02-03T08:40:21.525Z,87.62
2023-02-03T08:43:52.059Z,88.56
2023-02-03T08:51:11.657Z,90.08
2023-02-03T08:54:10.215Z,90.27
2023-02-03T08:57:36.938Z,90.23
2023-02-03T09:00:37.641Z,90.40
2023-02-03T09:03:06.133Z,90.26
2023-02-03T09:05:38.698Z,90.42
2023-02-03T09:08:08.073Z,90.58
2023-02-03T09:11:33.585Z,90.56
2023-02-03T09:14:06.643Z,90.63
2023-02-03T09:16:54.537Z,90.63
2023-02-03T09:19:24.821Z,90.75
2023-02-03T09:22:03.424Z,91.20
2023-02-03T09:25:00.593Z,91.85
2023-02-03T09:31:47.197Z,92.34
2023-02-03T09:35:26.908Z,92.43
2023-02-03T09:39:09.277Z,92.79
2023-02-03T09:42:12.223Z,93.15
2023-02-03T09:45:08.006Z,93.01
2023-02-03T09:48:36.629Z,93.49
2023-02-03T09:52:09.140Z,93.32
2023-02-03T09:55:43.563Z,93.35
2023-02-03T09:58:46.478Z,92.99
2023-02-03T10:01:22.340Z,92.96
2023-02-03T10:13:15.131Z,92.44
2023-02-03T10:16:23.241Z,92.52
2023-02-03T10:19:28.490Z,92.54
2023-02-03T10:31:08.960Z,92.85
2023-02-03T10:34:44.438Z,92.70
2023-02-03T10:37:50.785Z,92.97
2023-02-03T10:40:32.545Z,93.18
2023-02-03T10:43:19.771Z,93.02
2023-02-03T11:03:33.371Z,93.49
2023-02-03T11:10:45.429Z,93.43
2023-02-03T11:22:32.767Z,93.35
2023-02-03T11:29:36.584Z,94.13
2023-02-03T11:36:38.013Z,94.00
2023-02-03T11:43:51.042Z,93.45
2023-02-03T11:51:02.209Z,93.57
2023-02-03T12:03:35.913Z,93.49
2023-02-03T12:06:45.806Z,93.50
2023-02-03T12:14:18.488Z,93.28
2023-02-03T12:27:01.764Z,93.51
2023-02-03T12:35:49.222Z,93.94
2023-02-03T12:52:37.864Z,93.99
2023-02-03T12:55:23.331Z,94.11
2023-02-03T13:02:23.282Z,94.47
2023-02-03T13:09:42.568Z,93.84
2023-02-03T13:16:47.266Z,94.19
2023-02-03T13:29:55.031Z,93.94
2023-02-03T13:38:10.098Z,93.75
2023-02-03T13:45:22.170Z,93.47
2023-02-03T13:48:12.579Z,93.48
2023-02-03T14:00:32.691Z,93.84
2023-02-03T14:07:55.487Z,94.15
2023-02-03T14:11:24.183Z,94.16
2023-02-03T14:14:31.220Z,94.24
2023-02-03T14:16:59.595Z,93.95
2023-02-03T14:19:57.179Z,93.86
2023-02-03T14:22:27.695Z,93.97
2023-02-03T14:26:08.583Z,94.23
2023-02-03T14:29:10.043Z,94.53
2023-02-03T14:32:01.113Z,94.39
2023-02-03T14:34:37.211Z,94.50
2023-02-03T14:37:22.163Z,94.54
2023-02-03T14:40:15.632Z,94.63
2023-02-03T14:43:49.926Z,94.96
2023-02-03T14:46:47.938Z,95.15
2023-02-03T14:50:29.717Z,95.14
2023-02-03T14:53:34.040Z,95.42
2023-02-03T14:56:14.780Z,95.18
2023-02-03T14:58:49.245Z,95.44
2023-02-03T15:01:58.903Z,96.19
2023-02-03T15:04:33.652Z,96.11
2023-02-03T15:07:44.790Z,95.42
2023-02-03T15:10:43.516Z,95.03
2023-02-03T15:13:39.776Z,94.59
2023-02-03T15:16:17.223Z,94.45
2023-02-03T15:19:25.393Z,94.00
2023-02-03T15:22:24.263Z,94.02
2023-02-03T15:25:29.463Z,93.98
2023-02-03T15:28:13.762Z,93.59
2023-02-03T15:30:58.715Z,93.54
2023-02-03T15:34:24.490Z,93.64
2023-02-03T15:36:56.687Z,93.39
2023-02-03T15:39:34.560Z,93.33
2023-02-03T15:42:08.864Z,93.20
2023-02-03T15:44:44.993Z,93.42
2023-02-03T15:48:17.536Z,93.57
2023-02-03T15:50:50.019Z,93.80
2023-02-03T15:53:27.657Z,94.04
2023-02-03T16:00:42.450Z,94.32
2023-02-03T16:03:21.615Z,94.24
2023-02-03T16:06:25.490Z,94.20
2023-02-03T16:09:37.715Z,94.21
2023-02-03T16:12:19.682Z,94.05
2023-02-03T16:15:22.808Z,94.23
2023-02-03T16:17:58.968Z,94.22
2023-02-03T16:20:51.033Z,94.07
2023-02-03T16:23:22.900Z,94.18
2023-02-03T16:26:19.262Z,94.38
2023-02-03T16:29:32.320Z,94.32
2023-02-03T16:32:59.408Z,94.08
2023-02-03T16:35:48.908Z,94.23
2023-02-03T16:38:39.409Z,94.46
2023-02-03T16:41:35.021Z,94.34
2023-02-03T16:44:30.835Z,93.91
2023-02-03T16:47:47.497Z,93.89
2023-02-03T16:50:39.573Z,94.14
2023-02-03T16:53:15.947Z,94.36
2023-02-03T16:55:45.181Z,93.94
2023-02-03T16:58:14.507Z,94.34
2023-02-03T17:00:46.618Z,94.14
2023-02-03T17:03:49.041Z,94.34
2023-02-03T17:06:51.214Z,93.85
2023-02-03T17:09:25.081Z,93.84
2023-02-03T17:11:59.427Z,93.79
2023-02-03T17:14:32.255Z,93.89
2023-02-03T17:17:04.917Z,93.99
2023-02-03T17:19:38.753Z,94.20
2023-02-03T17:22:09.117Z,94.36
2023-02-03T17:25:12.676Z,94.39
2023-02-03T17:27:41.192Z,94.23
2023-02-03T17:30:12.799Z,94.29
2023-02-03T17:32:47.141Z,94.41
2023-02-03T17:35:16.587Z,93.91
2023-02-03T17:37:48.641Z,93.83
2023-02-03T17:54:56.388Z,92.01
2023-02-03T17:57:34.556Z,91.84
2023-02-03T18:00:04.251Z,91.90
2023-02-03T18:02:42.697Z,91.97
2023-02-03T18:05:40.996Z,91.79
2023-02-03T18:08:16.350Z,91.81
2023-02-03T18:10:46.682Z,92.14
2023-02-03T18:13:16.953Z,91.52
2023-02-03T18:15:46.286Z,90.79
2023-02-03T18:18:21.491Z,90.96
2023-02-03T18:20:54.256Z,90.35
2023-02-03T18:23:35.213Z,90.54
2023-02-03T18:26:05.255Z,90.42
2023-02-03T18:28:43.152Z,89.98
2023-02-03T18:32:20.043Z,89.85
2023-02-03T18:34:49.716Z,90.18
2023-02-03T18:37:25.226Z,89.82
2023-02-03T18:39:53.749Z,89.50
2023-02-03T18:42:25.313Z,89.72
2023-02-03T18:44:57.248Z,89.93
2023-02-03T18:47:28.269Z,90.25
2023-02-03T18:49:56.599Z,88.74
2023-02-03T18:52:55.916Z,88.72
2023-02-03T18:55:31.536Z,88.29
2023-02-03T18:58:00.200Z,88.59
2023-02-03T19:00:33.909Z,87.82
2023-02-03T19:03:04.679Z,87.45
2023-02-03T19:05:34.368Z,87.10
2023-02-03T19:08:02.846Z,87.61
2023-02-03T19:10:32.408Z,87.91
2023-02-03T19:13:02.217Z,88.80
2023-02-03T19:15:30.897Z,88.77
2023-02-03T19:18:01.573Z,89.60
2023-02-03T19:20:39.184Z,89.12
2023-02-03T19:23:13.705Z,88.00
2023-02-03T19:30:37.855Z,89.44
2023-02-03T19:33:41.208Z,89.23
2023-02-03T19:36:12.458Z,88.76
2023-02-03T19:38:42.833Z,89.35
2023-02-03T19:41:17.239Z,89.73
2023-02-03T19:44:17.973Z,89.96
2023-02-03T19:46:49.735Z,90.12
2023-02-03T19:50:16.553Z,90.51
2023-02-03T19:57:29.853Z,89.77
2023-02-03T20:00:04.224Z,89.88
2023-02-03T20:07:14.949Z,88.74
2023-02-03T20:11:01.298Z,88.91
2023-02-03T20:18:45.790Z,86.60
2023-02-03T20:21:21.794Z,86.41
2023-02-03T20:23:50.467Z,86.13
2023-02-03T20:26:21.057Z,85.37
2023-02-03T20:29:22.866Z,85.00
2023-02-03T20:32:29.027Z,84.26
2023-02-03T20:35:55.678Z,83.30
2023-02-03T20:38:26.280Z,82.40
2023-02-03T20:40:58.441Z,81.37
2023-02-03T20:44:28.654Z,81.44
2023-02-03T20:47:00.054Z,80.88
2023-02-03T20:49:37.905Z,81.55
2023-02-03T20:52:13.798Z,81.60
2023-02-03T20:54:49.195Z,80.52
2023-02-03T21:01:35.560Z,80.06
2023-02-03T21:09:44.299Z,80.58
2023-02-03T21:12:17.631Z,79.66
2023-02-03T21:14:53.305Z,79.40
2023-02-03T21:17:29.679Z,79.57
2023-02-03T21:24:35.779Z,80.40
2023-02-03T21:32:22.236Z,80.37
2023-02-03T21:34:50.833Z,80.08
2023-02-03T21:37:56.014Z,80.10
2023-02-03T21:40:27.606Z,80.02
2023-02-03T21:43:29.483Z,80.31
2023-02-03T21:46:35.875Z,79.79
2023-02-03T21:49:18.502Z,79.10
2023-02-03T21:52:24.306Z,79.94
2023-02-03T21:56:13.313Z,78.98
2023-02-03T21:59:16.537Z,80.85
2023-02-03T22:02:00.893Z,79.88
2023-02-03T22:05:04.304Z,80.79
2023-02-03T22:08:10.624Z,80.79
2023-02-03T22:11:08.673Z,80.85
2023-02-03T22:18:10.310Z,80.80
2023-02-03T22:20:45.555Z,80.90
2023-02-03T22:23:45.103Z,81.18
2023-02-03T22:31:30.833Z,81.59
2023-02-03T22:39:04.310Z,82.36
2023-02-03T22:45:56.544Z,84.09
2023-02-03T22:48:56.800Z,84.14
2023-02-03T22:51:44.315Z,84.08
2023-02-03T22:54:19.509Z,84.17
2023-02-03T22:57:03.131Z,84.05
2023-02-03T23:00:05.285Z,83.57
2023-02-03T23:03:12.026Z,83.62
2023-02-03T23:05:45.293Z,83.95
2023-02-03T23:08:46.575Z,83.70
2023-02-03T23:17:17.282Z,83.38
2023-02-03T23:24:30.303Z,82.67
2023-02-03T23:27:12.586Z,81.66
2023-02-03T23:30:14.665Z,81.31
2023-02-03T23:32:42.919Z,80.83
2023-02-03T23:35:47.571Z,81.25
2023-02-03T23:38:16.840Z,80.56
2023-02-03T23:40:49.065Z,80.96
2023-02-03T23:43:20.150Z,80.47
2023-02-03T23:45:49.442Z,80.59
2023-02-03T23:49:18.497Z,80.65
2023-02-03T23:51:49.953Z,80.40
2023-02-03T23:54:18.205Z,81.01
2023-02-03T23:57:16.413Z,81.83
2023-02-03T23:59:48.394Z,81.56
